Time;durP1;ratioP1;P1;durP2;ratioP2;P2;SDS_P1;SDS_P2;PMS_P1;PMS_P2;Temp;Humidity;BMP_temperature;BMP_pressure;BME280_temperature;BME280_humidity;BME280_pressure;Samples;Min_cycle;Max_cycle;Signal;HPM_P1;HPM_P2
2021/12/21 00:01:10;;;;;;;19.67;8.73;;;;;;;-1.33;100.00;98712.47;1642947;87;21059;-72
2021/12/21 00:03:37;;;;;;;16.70;8.07;;;;;;;-1.37;100.00;98709.73;1642954;87;21051;-70
2021/12/21 00:06:04;;;;;;;14.13;7.80;;;;;;;-1.38;100.00;98725.27;1642753;87;21023;-72
2021/12/21 00:08:31;;;;;;;16.33;8.23;;;;;;;-1.38;100.00;98714.66;1642990;87;21031;-72
2021/12/21 00:11:00;;;;;;;19.67;12.00;;;;;;;-1.37;100.00;98711.05;1643081;87;21012;-71
2021/12/21 00:16:11;;;;;;;19.82;11.65;;;;;;;-1.43;100.00;98701.80;1643202;87;21067;-73
2021/12/21 00:18:37;;;;;;;17.57;10.47;;;;;;;-1.46;100.00;98710.00;1638222;87;20991;-72
2021/12/21 00:23:38;;;;;;;15.67;9.20;;;;;;;-1.51;100.00;98708.22;1585926;90;21036;-71
2021/12/21 00:26:19;;;;;;;17.47;9.33;;;;;;;-1.52;100.00;98703.90;1586032;90;21110;-71
2021/12/21 00:28:58;;;;;;;18.63;10.37;;;;;;;-1.53;100.00;98713.64;1577449;90;21057;-71
2021/12/21 00:31:26;;;;;;;19.63;11.67;;;;;;;-1.55;100.00;98704.98;1577226;91;21057;-71
2021/12/21 00:33:53;;;;;;;19.80;11.10;;;;;;;-1.60;100.00;98707.16;1577063;91;21556;-71
2021/12/21 00:36:21;;;;;;;17.90;10.27;;;;;;;-1.63;100.00;98705.25;1577187;91;21090;-71
2021/12/21 00:38:48;;;;;;;18.13;10.40;;;;;;;-1.67;100.00;98703.83;1577185;91;21017;-71
2021/12/21 00:41:16;;;;;;;19.97;10.10;;;;;;;-1.69;100.00;98699.97;1596245;88;21514;-71
2021/12/21 00:43:43;;;;;;;16.30;9.37;;;;;;;-1.68;100.00;98699.48;1574496;91;21019;-72
2021/12/21 00:46:10;;;;;;;18.60;9.73;;;;;;;-1.70;100.00;98697.45;1602848;89;20998;-72
2021/12/21 00:48:40;;;;;;;18.67;9.87;;;;;;;-1.69;100.00;98698.66;1602836;88;20998;-71
2021/12/21 00:51:06;;;;;;;18.87;10.03;;;;;;;-1.71;100.00;98699.27;1602376;89;20994;-73
2021/12/21 00:53:40;;;;;;;17.97;9.20;;;;;;;-1.74;100.00;98700.34;1574544;91;21087;-71
2021/12/21 00:56:06;;;;;;;16.23;8.83;;;;;;;-1.80;100.00;98700.03;1601981;89;21055;-71
2021/12/21 00:58:41;;;;;;;14.00;7.67;;;;;;;-1.82;100.00;98704.13;1549098;92;21595;-71
2021/12/21 01:01:08;;;;;;;15.47;8.03;;;;;;;-1.82;100.00;98707.27;1655973;85;21023;-72
2021/12/21 01:03:37;;;;;;;15.90;8.10;;;;;;;-1.81;100.00;98708.44;1691420;85;20987;-71
2021/12/21 01:08:44;;;;;;;17.50;8.70;;;;;;;-1.83;100.00;98706.40;1639269;87;21014;-71
2021/12/21 01:16:32;;;;;;;23.75;12.65;;;;;;;-1.79;100.00;98710.97;1639382;87;21089;-73
2021/12/21 01:19:11;;;;;;;19.60;10.93;;;;;;;-1.76;100.00;98710.23;1636126;87;20986;-72
2021/12/21 01:21:48;;;;;;;21.17;12.50;;;;;;;-1.72;100.00;98712.14;1636526;87;21007;-71
2021/12/21 01:29:47;;;;;;;17.50;10.00;;;;;;;-1.60;100.00;98722.23;1623739;88;21011;-72
2021/12/21 01:32:19;;;;;;;18.37;10.07;;;;;;;-1.61;100.00;98724.05;1620395;88;21140;-71
2021/12/21 01:37:32;;;;;;;16.93;9.63;;;;;;;-1.63;100.00;98726.45;1624062;88;21000;-72
2021/12/21 01:39:58;;;;;;;24.50;13.83;;;;;;;-1.62;100.00;98734.28;1620725;88;21550;-72
2021/12/21 01:49:55;;;;;;;28.50;15.03;;;;;;;-1.67;100.00;98723.70;1637361;86;21006;-72
2021/12/21 01:52:24;;;;;;;26.50;14.57;;;;;;;-1.67;100.00;98719.73;1643230;86;21074;-73
2021/12/21 01:54:51;;;;;;;26.00;13.17;;;;;;;-1.66;100.00;98733.36;1642778;85;21067;-72
2021/12/21 01:57:18;;;;;;;26.90;13.93;;;;;;;-1.65;100.00;98730.55;1668131;85;21478;-73
2021/12/21 01:59:46;;;;;;;27.63;14.03;;;;;;;-1.62;100.00;98737.42;1669499;85;20964;-72
2021/12/21 02:02:18;;;;;;;27.67;14.10;;;;;;;-1.62;100.00;98742.23;1670156;85;21060;-72
2021/12/21 02:04:44;;;;;;;27.00;14.97;;;;;;;-1.60;100.00;98735.48;1667787;85;21011;-73
2021/12/21 02:07:12;;;;;;;28.30;15.70;;;;;;;-1.59;100.00;98731.39;1667009;85;21083;-72
2021/12/21 02:09:39;;;;;;;16.20;7.73;;;;;;;-1.61;100.00;98737.30;1664454;85;20984;-72
2021/12/21 02:12:12;;;;;;;12.27;6.30;;;;;;;-1.65;100.00;98741.16;1723785;82;21073;-71
2021/12/21 02:14:40;;;;;;;9.20;5.50;;;;;;;-1.71;100.00;98740.34;1753249;82;21003;-72
2021/12/21 02:17:49;;;;;;;29.37;14.23;;;;;;;-1.81;100.00;98748.19;1719814;83;21054;-73
2021/12/21 02:20:22;;;;;;;191.13;86.13;;;;;;;-1.85;100.00;98744.11;1753225;82;20975;-72
2021/12/21 02:22:52;;;;;;;115.03;52.63;;;;;;;-1.88;100.00;98741.70;1753109;82;20998;-72
2021/12/21 02:27:57;;;;;;;42.67;22.77;;;;;;;-2.06;100.00;98753.79;1752931;82;20987;-71
2021/12/21 02:30:22;;;;;;;50.00;25.45;;;;;;;-2.19;100.00;98752.61;1742348;82;20967;-72
2021/12/21 02:32:49;;;;;;;47.43;25.90;;;;;;;-2.30;100.00;98752.13;1753113;82;20987;-72
2021/12/21 02:35:16;;;;;;;179.03;77.90;;;;;;;-2.38;100.00;98751.87;1742318;82;21018;-71
2021/12/21 02:37:49;;;;;;;92.90;41.13;;;;;;;-2.44;100.00;98759.83;1742355;82;21567;-71
2021/12/21 02:40:16;;;;;;;100.03;44.53;;;;;;;-2.47;100.00;98764.52;1753304;82;20967;-72
2021/12/21 02:42:42;;;;;;;52.30;26.17;;;;;;;-2.51;100.00;98766.56;1753232;82;21029;-72
2021/12/21 02:45:11;;;;;;;30.90;14.83;;;;;;;-2.50;100.00;98773.53;1742343;82;20983;-72
2021/12/21 02:47:38;;;;;;;18.10;8.03;;;;;;;-2.53;100.00;98773.79;1753207;82;20984;-73
2021/12/21 02:50:06;;;;;;;17.73;9.13;;;;;;;-2.54;100.00;98781.35;1741286;82;20995;-71
2021/12/21 02:52:33;;;;;;;19.33;8.67;;;;;;;-2.51;100.00;98781.13;1741143;82;20983;-71
2021/12/21 02:55:01;;;;;;;31.93;16.23;;;;;;;-2.50;100.00;98786.77;1739154;82;20963;-73
2021/12/21 02:57:28;;;;;;;40.77;20.30;;;;;;;-2.52;100.00;98780.75;1725927;83;21015;-72
2021/12/21 02:59:55;;;;;;;31.87;14.80;;;;;;;-2.54;100.00;98786.65;1726114;83;20987;-72
2021/12/21 03:02:22;;;;;;;22.83;11.37;;;;;;;-2.56;100.00;98792.55;1726034;83;20967;-72
2021/12/21 03:04:50;;;;;;;18.53;9.83;;;;;;;-2.57;100.00;98798.30;1725876;83;21018;-72
2021/12/21 03:07:49;;;;;;;20.93;10.13;;;;;;;-2.56;100.00;98801.32;1725707;83;21046;-72
2021/12/21 03:09:56;;;;;;;22.53;9.43;;;;;;;-2.57;100.00;98802.27;1727803;82;20983;-73
2021/12/21 03:14:51;;;;;;;16.97;7.03;;;;;;;-2.65;100.00;98823.20;1725932;83;21023;-71
2021/12/21 03:17:25;;;;;;;14.47;6.90;;;;;;;-2.68;100.00;98816.81;1725875;82;21504;-71
2021/12/21 03:19:52;;;;;;;17.13;8.00;;;;;;;-2.72;100.00;98819.34;1725989;83;21477;-72
2021/12/21 03:22:19;;;;;;;16.37;6.90;;;;;;;-2.78;100.00;98833.88;1725945;83;20991;-73
2021/12/21 03:24:45;;;;;;;11.50;5.73;;;;;;;-2.82;100.00;98835.05;1725895;83;20986;-72
2021/12/21 03:27:12;;;;;;;14.57;6.13;;;;;;;-2.84;100.00;98832.17;1720359;82;21524;-73
2021/12/21 03:29:39;;;;;;;12.20;5.73;;;;;;;-2.89;100.00;98837.31;1709594;83;20987;-72
2021/12/21 03:32:08;;;;;;;9.90;6.37;;;;;;;-2.93;100.00;98835.03;1710169;83;21051;-71
2021/12/21 03:34:36;;;;;;;9.30;4.87;;;;;;;-2.97;100.00;98830.45;1709863;83;20952;-72
2021/12/21 03:37:09;;;;;;;8.73;4.70;;;;;;;-3.04;100.00;98837.64;1709766;83;21030;-72
2021/12/21 03:39:31;;;;;;;7.23;4.20;;;;;;;-3.11;100.00;98842.54;1709417;83;21004;-72
2021/12/21 03:42:00;;;;;;;7.47;3.90;;;;;;;-3.18;100.00;98839.98;1709634;84;21090;-72
2021/12/21 03:44:27;;;;;;;6.00;3.80;;;;;;;-3.31;100.00;98838.70;1709844;84;20948;-74
2021/12/21 03:46:55;;;;;;;5.07;3.67;;;;;;;-3.40;100.00;98848.14;1709726;84;21003;-72
2021/12/21 03:52:12;;;;;;;5.87;3.70;;;;;;;-3.50;100.00;98857.23;1649411;87;21049;-74
2021/12/21 03:54:41;;;;;;;6.73;4.33;;;;;;;-3.52;100.00;98860.96;1640938;87;21106;-72
2021/12/21 03:57:07;;;;;;;8.20;4.40;;;;;;;-3.57;100.00;98863.92;1681326;85;20999;-72
2021/12/21 03:59:35;;;;;;;8.30;4.43;;;;;;;-3.62;100.00;98857.63;1681575;85;21564;-71
2021/12/21 04:02:02;;;;;;;11.57;4.83;;;;;;;-3.66;100.00;98854.85;1681640;85;21034;-72
2021/12/21 04:04:28;;;;;;;5.57;3.80;;;;;;;-3.67;100.00;98858.44;1681557;85;21042;-72
2021/12/21 04:06:57;;;;;;;10.23;4.37;;;;;;;-3.70;100.00;98856.49;1681444;85;21054;-73
2021/12/21 04:09:25;;;;;;;8.57;4.23;;;;;;;-3.72;100.00;98860.59;1630556;87;21067;-71
2021/12/21 04:11:52;;;;;;;7.00;4.40;;;;;;;-3.75;100.00;98860.80;1681662;85;21542;-73
2021/12/21 04:14:20;;;;;;;9.90;5.40;;;;;;;-3.77;100.00;98877.24;1630887;88;20992;-74
2021/12/21 04:16:48;;;;;;;8.73;4.77;;;;;;;-3.77;100.00;98885.17;1681620;85;21576;-71
2021/12/21 04:19:14;;;;;;;10.27;5.40;;;;;;;-3.78;100.00;98880.83;1681620;85;20994;-72
2021/12/21 04:21:41;;;;;;;6.93;4.27;;;;;;;-3.77;100.00;98871.09;1630576;88;20999;-72
2021/12/21 04:24:08;;;;;;;8.80;4.40;;;;;;;-3.75;100.00;98877.11;1681552;85;21031;-72
2021/12/21 04:26:35;;;;;;;28.57;10.10;;;;;;;-3.77;100.00;98879.88;1681661;85;21066;-72
2021/12/21 04:29:02;;;;;;;17.60;7.10;;;;;;;-3.81;100.00;98886.31;1681555;85;21018;-72
2021/12/21 04:31:29;;;;;;;18.03;6.83;;;;;;;-3.84;100.00;98883.91;1681551;85;21022;-72
2021/12/21 04:33:55;;;;;;;12.37;5.43;;;;;;;-3.85;100.00;98891.45;1681725;85;21484;-72
2021/12/21 04:36:22;;;;;;;5.60;3.80;;;;;;;-3.85;100.00;98896.25;1681459;85;21082;-71
2021/12/21 04:38:50;;;;;;;6.70;3.60;;;;;;;-3.88;100.00;98900.45;1681725;85;21010;-72
2021/12/21 04:43:44;;;;;;;5.43;3.70;;;;;;;-3.92;100.00;98903.41;1681690;85;21588;-72
2021/12/21 04:46:11;;;;;;;6.77;3.50;;;;;;;-3.93;100.00;98909.63;1681499;85;21035;-71
2021/12/21 04:48:39;;;;;;;7.37;4.00;;;;;;;-3.95;100.00;98919.45;1694304;83;20993;-73
2021/12/21 04:51:06;;;;;;;7.50;3.77;;;;;;;-3.99;100.00;98914.87;1726644;82;20978;-72
2021/12/21 04:53:33;;;;;;;7.43;4.23;;;;;;;-3.95;100.00;98921.61;1746118;82;20978;-73
2021/12/21 04:56:01;;;;;;;9.13;4.90;;;;;;;-3.95;100.00;98933.50;1746054;82;21087;-72
2021/12/21 04:58:27;;;;;;;12.60;5.53;;;;;;;-3.97;100.00;98931.45;1746122;82;20984;-71
2021/12/21 05:00:54;;;;;;;8.67;5.20;;;;;;;-3.95;100.00;98937.45;1746025;82;21478;-71
2021/12/21 05:03:20;;;;;;;8.43;4.60;;;;;;;-3.92;100.00;98933.78;1746170;82;20996;-73
2021/12/21 05:05:49;;;;;;;12.30;7.83;;;;;;;-3.90;100.00;98937.16;1746181;82;21447;-72
2021/12/21 05:10:50;;;;;;;18.90;9.97;;;;;;;-3.90;100.00;98960.92;1672558;84;21011;-72
2021/12/21 05:13:18;;;;;;;33.43;15.23;;;;;;;-3.88;100.00;98965.16;1670297;84;21039;-73
2021/12/21 05:15:45;;;;;;;70.23;30.50;;;;;;;-3.87;100.00;98969.48;1671462;84;21461;-71
2021/12/21 05:18:12;;;;;;;163.03;61.87;;;;;;;-3.83;100.00;98981.52;1673115;84;21028;-71
2021/12/21 05:20:39;;;;;;;215.47;80.53;;;;;;;-3.79;100.00;98983.95;1674213;84;21019;-71
2021/12/21 05:23:06;;;;;;;104.40;42.60;;;;;;;-3.77;100.00;98989.97;1673426;84;21556;-71
2021/12/21 05:25:34;;;;;;;194.87;82.90;;;;;;;-3.75;100.00;98994.21;1669612;84;20999;-71
2021/12/21 05:28:01;;;;;;;71.93;32.20;;;;;;;-3.75;100.00;98987.61;1680872;85;20983;-72
2021/12/21 05:30:28;;;;;;;89.43;45.60;;;;;;;-3.75;100.00;98994.21;1685120;85;20963;-71
2021/12/21 05:32:55;;;;;;;50.73;27.73;;;;;;;-3.73;100.00;99005.52;1685303;85;21011;-72
2021/12/21 05:35:22;;;;;;;37.97;21.43;;;;;;;-3.71;100.00;99000.13;1662282;85;21532;-70
2021/12/21 05:37:52;;;;;;;19.43;10.37;;;;;;;-3.69;100.00;99000.38;1685211;85;21557;-72
2021/12/21 05:40:19;;;;;;;12.93;7.40;;;;;;;-3.68;100.00;99000.76;1684997;85;21490;-72
2021/12/21 05:42:47;;;;;;;15.80;8.13;;;;;;;-3.67;100.00;99006.88;1651649;87;21080;-73
2021/12/21 05:45:17;;;;;;;16.00;6.60;;;;;;;-3.64;100.00;99008.00;1685430;84;21003;-71
2021/12/21 05:47:44;;;;;;;15.37;6.70;;;;;;;-3.65;100.00;99004.52;1633484;86;21023;-73
2021/12/21 05:50:16;;;;;;;13.37;6.43;;;;;;;-3.65;100.00;99013.77;1710904;83;21026;-73
2021/12/21 05:52:43;;;;;;;12.03;6.10;;;;;;;-3.66;100.00;99011.23;1742386;82;21498;-71
2021/12/21 05:55:11;;;;;;;11.37;6.30;;;;;;;-3.66;100.00;99025.27;1750134;82;20968;-72
2021/12/21 05:57:38;;;;;;;12.37;5.90;;;;;;;-3.64;100.00;99030.45;1736953;83;20995;-71
2021/12/21 06:00:10;;;;;;;13.73;7.30;;;;;;;-3.63;100.00;99032.13;1737251;82;21486;-71
2021/12/21 06:02:37;;;;;;;12.00;5.53;;;;;;;-3.65;100.00;99037.55;1737254;82;21015;-71
2021/12/21 06:05:05;;;;;;;17.23;7.57;;;;;;;-3.67;100.00;99038.10;1737126;83;20987;-71
2021/12/21 06:07:32;;;;;;;18.73;8.00;;;;;;;-3.69;100.00;99047.09;1737107;82;21030;-71
2021/12/21 06:10:09;;;;;;;18.40;6.73;;;;;;;-3.67;100.00;99044.70;1737146;82;21055;-71
2021/12/21 06:12:54;;;;;;;18.27;8.60;;;;;;;-3.65;100.00;99052.53;1737549;82;21003;-72
2021/12/21 06:23:19;;;;;;;22.83;9.97;;;;;;;-3.54;100.00;99068.52;1737012;82;21036;-72
2021/12/21 06:25:52;;;;;;;45.17;22.93;;;;;;;-3.54;100.00;99066.33;1737800;82;21047;-71
2021/12/21 06:28:11;;;;;;;29.40;13.80;;;;;;;-3.55;100.00;99066.81;1749244;82;20982;-70
2021/12/21 06:30:40;;;;;;;31.63;19.23;;;;;;;-3.52;100.00;99060.48;1753022;82;20963;-72
2021/12/21 06:33:07;;;;;;;29.73;16.10;;;;;;;-3.50;100.00;99059.41;1753024;82;20983;-71
2021/12/21 06:35:36;;;;;;;37.87;20.87;;;;;;;-3.45;100.00;99062.59;1752956;82;21023;-74
2021/12/21 06:38:02;;;;;;;45.87;24.07;;;;;;;-3.42;100.00;99056.23;1742155;82;20995;-70
2021/12/21 06:40:30;;;;;;;41.40;20.93;;;;;;;-3.38;100.00;99058.19;1758207;81;20939;-70
2021/12/21 06:43:00;;;;;;;33.70;17.43;;;;;;;-3.35;100.00;99071.20;1769575;81;20999;-70
2021/12/21 06:45:32;;;;;;;31.33;15.20;;;;;;;-3.30;100.00;99077.84;1769281;81;21458;-72
2021/12/21 06:53:27;;;;;;;23.67;16.53;;;;;;;-3.30;100.00;99080.98;1774457;80;21022;-72
2021/12/21 06:55:54;;;;;;;21.17;11.63;;;;;;;-3.29;100.00;99078.23;1760177;81;20939;-72
2021/12/21 06:58:21;;;;;;;19.43;9.43;;;;;;;-3.26;100.00;99081.13;1745188;81;21571;-72
2021/12/21 07:00:55;;;;;;;17.73;10.47;;;;;;;-3.24;100.00;99083.18;1745294;81;20983;-71
2021/12/21 07:03:22;;;;;;;18.80;10.10;;;;;;;-3.21;100.00;99092.23;1745833;82;21072;-72
2021/12/21 07:05:49;;;;;;;56.27;39.43;;;;;;;-3.15;100.00;99094.46;1745193;82;21096;-70
2021/12/21 07:08:21;;;;;;;24.27;15.17;;;;;;;-3.08;100.00;99101.02;1744910;81;21081;-73
2021/12/21 07:10:54;;;;;;;44.33;36.67;;;;;;;-3.07;100.00;99101.84;1745513;81;21485;-72
2021/12/21 07:18:31;;;;;;;21.07;11.27;;;;;;;-3.08;100.00;99101.02;1682944;84;21066;-73
2021/12/21 07:21:05;;;;;;;36.17;23.57;;;;;;;-3.03;100.00;99099.34;1682426;83;21054;-71
2021/12/21 07:23:32;;;;;;;40.23;25.23;;;;;;;-3.00;100.00;99103.11;1681469;85;21023;-72
2021/12/21 07:25:59;;;;;;;34.87;21.33;;;;;;;-2.99;100.00;99112.75;1717060;83;21011;-71
2021/12/21 07:28:26;;;;;;;37.63;19.10;;;;;;;-2.95;100.00;99108.92;1689791;84;21081;-71
2021/12/21 07:30:52;;;;;;;42.93;27.10;;;;;;;-2.87;100.00;99114.98;1684787;84;21019;-73
2021/12/21 07:33:19;;;;;;;20.60;11.47;;;;;;;-2.82;100.00;99116.83;1684930;84;20995;-69
2021/12/21 07:35:47;;;;;;;12.10;6.57;;;;;;;-2.84;100.00;99117.42;1684220;84;21023;-70
2021/12/21 07:38:14;;;;;;;12.60;7.57;;;;;;;-2.93;100.00;99116.75;1684399;84;21508;-71
2021/12/21 07:40:48;;;;;;;37.17;29.77;;;;;;;-3.02;100.00;99122.70;1684446;84;21131;-71
2021/12/21 07:43:15;;;;;;;24.30;16.33;;;;;;;-3.05;100.00;99123.73;1684572;84;21050;-72
2021/12/21 07:45:44;;;;;;;20.33;10.73;;;;;;;-3.08;100.00;99127.46;1684583;84;21022;-73
2021/12/21 07:48:11;;;;;;;21.30;12.03;;;;;;;-3.06;100.00;99129.52;1684807;84;21054;-72
2021/12/21 07:50:39;;;;;;;33.57;20.33;;;;;;;-3.00;100.00;99135.33;1685122;84;20983;-70
2021/12/21 07:53:07;;;;;;;68.40;47.60;;;;;;;-2.94;100.00;99133.56;1687643;83;20999;-71
2021/12/21 07:55:34;;;;;;;49.37;33.73;;;;;;;-2.89;100.00;99138.06;1719760;82;21026;-73
2021/12/21 07:58:01;;;;;;;39.13;28.40;;;;;;;-2.84;100.00;99143.05;1758145;81;20999;-74
2021/12/21 08:00:29;;;;;;;20.10;9.73;;;;;;;-2.81;100.00;99136.22;1761677;80;21480;-71
2021/12/21 08:02:57;;;;;;;79.37;42.73;;;;;;;-2.79;100.00;99132.98;1764868;81;21006;-72
2021/12/21 08:05:24;;;;;;;43.93;27.77;;;;;;;-2.76;100.00;99135.39;1767640;81;21043;-70
2021/12/21 08:07:57;;;;;;;31.40;19.67;;;;;;;-2.71;100.00;99131.94;1760729;81;21022;-69
2021/12/21 08:12:55;;;;;;;39.30;27.37;;;;;;;-2.66;100.00;99143.05;1707147;83;21024;-70
2021/12/21 08:15:24;;;;;;;78.93;58.53;;;;;;;-2.69;100.00;99140.16;1696125;84;21075;-71
2021/12/21 08:17:51;;;;;;;60.63;46.23;;;;;;;-2.65;100.00;99139.95;1696068;84;21488;-73
2021/12/21 08:20:18;;;;;;;31.03;20.93;;;;;;;-2.63;100.00;99143.33;1704507;83;21060;-71
2021/12/21 08:22:44;;;;;;;31.00;18.43;;;;;;;-2.64;100.00;99141.63;1705153;83;21038;-71
2021/12/21 08:25:15;;;;;;;57.93;43.20;;;;;;;-2.68;100.00;99153.74;1693970;83;21011;-70
2021/12/21 08:27:42;;;;;;;60.00;47.93;;;;;;;-2.69;100.00;99149.42;1695178;83;20943;-71
2021/12/21 08:30:10;;;;;;;40.77;25.70;;;;;;;-2.69;100.00;99151.23;1708856;83;21528;-73
2021/12/21 08:32:38;;;;;;;43.80;29.70;;;;;;;-2.69;100.00;99156.52;1716019;83;20995;-71
2021/12/21 08:35:05;;;;;;;59.07;43.03;;;;;;;-2.69;100.00;99156.52;1704397;83;21071;-71
2021/12/21 08:37:36;;;;;;;31.07;22.50;;;;;;;-2.61;100.00;99155.48;1716607;83;21485;-71
2021/12/21 08:40:07;;;;;;;42.97;29.13;;;;;;;-2.53;100.00;99157.60;1699643;83;21031;-74
2021/12/21 08:42:37;;;;;;;22.77;15.33;;;;;;;-2.44;100.00;99167.98;1674232;84;21041;-72
2021/12/21 08:45:06;;;;;;;10.70;5.27;;;;;;;-2.32;100.00;99170.62;1696807;83;20983;-74
2021/12/21 08:47:36;;;;;;;39.17;31.10;;;;;;;-2.23;100.00;99165.14;1654059;85;21035;-73
2021/12/21 08:50:06;;;;;;;13.17;7.60;;;;;;;-2.24;100.00;99170.05;1712163;83;21015;-69
2021/12/21 08:52:36;;;;;;;11.77;7.00;;;;;;;-2.26;100.00;99171.14;1699165;83;21077;-73
2021/12/21 08:55:05;;;;;;;21.63;11.57;;;;;;;-2.37;100.00;99177.20;1699525;83;21046;-75
2021/12/21 08:57:33;;;;;;;15.17;8.07;;;;;;;-2.49;100.00;99183.73;1685398;85;21127;-75
2021/12/21 09:00:00;;;;;;;22.83;11.97;;;;;;;-2.56;100.00;99182.47;1690838;85;21028;-75
2021/12/21 09:02:33;;;;;;;18.67;8.17;;;;;;;-2.63;100.00;99195.77;1680857;85;21010;-74
2021/12/21 09:04:57;;;;;;;21.97;11.30;;;;;;;-2.65;100.00;99196.85;1693746;83;21070;-71
2021/12/21 09:07:31;;;;;;;33.63;22.93;;;;;;;-2.70;100.00;99200.64;1706891;83;20991;-74
2021/12/21 09:09:58;;;;;;;46.33;25.83;;;;;;;-2.71;100.00;99204.72;1749594;81;20987;-74
2021/12/21 09:12:27;;;;;;;33.33;16.80;;;;;;;-2.78;100.00;99201.67;1769962;80;20963;-71
2021/12/21 09:14:54;;;;;;;27.77;14.13;;;;;;;-2.85;100.00;99209.67;1771359;81;21010;-72
2021/12/21 09:17:21;;;;;;;30.00;17.47;;;;;;;-2.89;100.00;99208.17;1749529;81;21413;-74
2021/12/21 09:19:50;;;;;;;30.20;14.53;;;;;;;-2.96;100.00;99208.22;1772347;80;20956;-72
2021/12/21 09:22:17;;;;;;;31.63;19.10;;;;;;;-3.04;100.00;99211.41;1746466;81;21484;-77
2021/12/21 09:24:44;;;;;;;38.87;25.37;;;;;;;-3.01;100.00;99215.17;1711939;84;21023;-75
2021/12/21 09:27:12;;;;;;;42.73;25.67;;;;;;;-2.95;100.00;99218.70;1697397;84;20975;-74
2021/12/21 09:29:39;;;;;;;32.60;18.60;;;;;;;-2.79;100.00;99224.27;1687209;84;21408;-75
2021/12/21 09:32:12;;;;;;;42.80;23.47;;;;;;;-2.58;100.00;99225.41;1712657;82;21474;-73
2021/12/21 09:34:37;;;;;;;62.10;32.07;;;;;;;-2.33;100.00;99218.39;1709986;82;21485;-79
2021/12/21 09:37:05;;;;;;;29.97;15.80;;;;;;;-2.17;100.00;99215.48;1715698;82;21457;-78
2021/12/21 09:39:32;;;;;;;31.83;22.17;;;;;;;-2.14;100.00;99221.90;1762884;81;21015;-76
2021/12/21 09:41:59;;;;;;;32.33;21.10;;;;;;;-2.16;100.00;99214.06;1757134;81;21014;-81
2021/12/21 09:44:29;;;;;;;24.30;15.93;;;;;;;-2.17;100.00;99228.73;1746986;82;21477;-76
2021/12/21 09:46:56;;;;;;;13.00;7.27;;;;;;;-2.18;100.00;99229.67;1744657;81;21039;-78
2021/12/21 09:49:23;;;;;;;26.07;15.97;;;;;;;-2.22;100.00;99232.19;1746470;81;20979;-79
2021/12/21 09:51:50;;;;;;;27.97;18.90;;;;;;;-2.32;100.00;99233.30;1761598;81;20979;-76
2021/12/21 09:54:20;;;;;;;29.80;18.73;;;;;;;-2.40;100.00;99240.97;1767256;80;20979;-80
2021/12/21 09:56:48;;;;;;;32.03;23.13;;;;;;;-2.49;100.00;99240.64;1745503;82;24398;-80
2021/12/21 09:59:16;;;;;;;64.33;49.13;;;;;;;-2.57;100.00;99250.08;1753822;80;20977;-80
2021/12/21 10:01:43;;;;;;;46.27;39.03;;;;;;;-2.61;100.00;99256.06;1746833;82;21452;-80
2021/12/21 10:04:11;;;;;;;27.10;17.43;;;;;;;-2.66;100.00;99252.88;1748877;81;21017;-78
2021/12/21 10:06:49;;;;;;;33.17;24.67;;;;;;;-2.61;100.00;99250.77;1751140;81;20968;-80
2021/12/21 10:09:18;;;;;;;18.77;10.13;;;;;;;-2.52;100.00;99240.02;1602746;89;21141;-79
2021/12/21 10:11:48;;;;;;;37.80;27.83;;;;;;;-2.45;100.00;99242.59;1614047;88;21073;-78
2021/12/21 10:14:16;;;;;;;23.57;14.90;;;;;;;-2.41;100.00;99244.06;1617260;87;21064;-77
2021/12/21 10:16:45;;;;;;;11.63;6.77;;;;;;;-2.38;100.00;99239.89;1616387;88;21062;-75
2021/12/21 10:19:22;;;;;;;12.37;6.97;;;;;;;-2.37;100.00;99246.05;1606498;89;21621;-76
2021/12/21 10:21:48;;;;;;;10.43;6.00;;;;;;;-2.48;100.00;99249.42;1615754;88;21028;-76
2021/12/21 10:24:28;;;;;;;15.47;8.40;;;;;;;-2.64;100.00;99246.16;1608528;88;21466;-77
2021/12/21 10:27:10;;;;;;;15.90;10.03;;;;;;;-2.77;100.00;99260.24;1609147;88;21573;-76
2021/12/21 10:29:58;;;;;;;13.03;7.13;;;;;;;-2.87;100.00;99264.02;1607419;88;21533;-78
2021/12/21 10:32:30;;;;;;;47.03;22.63;;;;;;;-2.93;100.00;99268.87;1613160;88;21036;-76
2021/12/21 10:35:08;;;;;;;24.37;13.03;;;;;;;-3.01;100.00;99267.20;1601725;89;20982;-81
2021/12/21 10:37:38;;;;;;;13.80;7.93;;;;;;;-3.02;100.00;99269.50;1602874;89;21090;-80
2021/12/21 10:40:27;;;;;;;11.50;6.00;;;;;;;-3.05;100.00;99274.50;1602865;90;21065;-80
2021/12/21 10:43:04;;;;;;;12.93;5.67;;;;;;;-3.11;100.00;99280.22;1602117;88;21044;-81
2021/12/21 10:45:40;;;;;;;15.33;7.57;;;;;;;-3.25;100.00;99278.48;1552290;90;21071;-82
2021/12/21 10:48:17;;;;;;;16.00;8.03;;;;;;;-3.37;100.00;99277.50;1545179;91;21094;-81
2021/12/21 10:50:45;;;;;;;22.00;12.40;;;;;;;-3.50;100.00;99278.78;1544434;91;21649;-80
2021/12/21 10:53:23;;;;;;;6.93;4.40;;;;;;;-3.68;100.00;99283.48;1551732;90;21084;-79
2021/12/21 10:56:09;;;;;;;32.77;22.47;;;;;;;-3.76;100.00;99273.87;1487086;95;21087;-79
2021/12/21 10:58:42;;;;;;;21.10;11.80;;;;;;;-3.79;100.00;99289.91;1474235;95;21114;-80
2021/12/21 11:01:25;;;;;;;24.30;14.63;;;;;;;-3.75;100.00;99286.14;1465490;95;21161;-80
2021/12/21 11:03:53;;;;;;;19.83;11.00;;;;;;;-3.74;100.00;99290.95;1488871;95;21097;-79
2021/12/21 11:06:27;;;;;;;25.57;15.77;;;;;;;-3.80;100.00;99280.79;1553679;89;21044;-79
2021/12/21 11:08:55;;;;;;;26.53;18.73;;;;;;;-3.86;100.00;99279.36;1594850;89;21069;-79
2021/12/21 11:11:32;;;;;;;21.47;13.73;;;;;;;-3.92;100.00;99279.77;1602408;88;21037;-80
2021/12/21 11:14:00;;;;;;;13.47;7.27;;;;;;;-3.96;100.00;99280.92;1590900;90;20989;-79
2021/12/21 11:16:41;;;;;;;39.63;26.47;;;;;;;-3.94;100.00;99279.02;1588643;90;21185;-78
2021/12/21 11:19:10;;;;;;;52.13;34.50;;;;;;;-3.94;100.00;99291.75;1588239;90;21554;-78
2021/12/21 11:21:37;;;;;;;18.17;10.23;;;;;;;-3.91;100.00;99290.23;1589695;90;21069;-80
2021/12/21 11:24:13;;;;;;;;;;;;;;;-3.91;100.00;99294.66;1592068;90;21053;-78
2021/12/21 11:26:41;;;;;;;8.83;5.70;;;;;;;-3.99;100.00;99301.75;1589339;90;20128;-76
2021/12/21 11:29:13;;;;;;;16.90;9.27;;;;;;;-3.99;100.00;99311.00;1587426;89;20981;-76
2021/12/21 11:31:42;;;;;;;9.60;4.83;;;;;;;-4.01;100.00;99311.09;1593575;88;21061;-76
2021/12/21 11:34:14;;;;;;;19.67;9.93;;;;;;;-4.05;100.00;99314.87;1589581;89;21037;-75
2021/12/21 11:39:32;;;;;;;14.10;7.70;;;;;;;-4.09;100.00;99330.99;1579630;89;21495;-76
2021/12/21 11:42:04;;;;;;;9.03;4.77;;;;;;;-4.14;100.00;99331.30;1663603;83;21002;-78
2021/12/21 11:44:47;;;;;;;;;;;;;;;-4.18;100.00;99336.38;1699470;84;20997;-78
2021/12/21 11:47:19;;;;;;;14.57;7.83;;;;;;;-4.21;100.00;99340.06;1639481;86;20112;-76
2021/12/21 11:49:55;;;;;;;6.27;4.20;;;;;;;-4.23;100.00;99341.95;1632232;86;21048;-74
2021/12/21 11:52:25;;;;;;;22.23;11.17;;;;;;;-4.26;100.00;99350.54;1620535;85;21025;-74
2021/12/21 11:54:57;;;;;;;28.97;16.00;;;;;;;-4.38;100.00;99361.36;1649152;85;20971;-73
2021/12/21 11:57:50;;;;;;;95.90;56.37;;;;;;;-4.49;100.00;99362.02;1655455;85;21055;-71
2021/12/21 12:00:30;;;;;;;20.20;11.00;;;;;;;-4.55;100.00;99368.99;1653101;85;20995;-72
2021/12/21 12:03:12;;;;;;;22.20;11.70;;;;;;;-4.56;100.00;99363.80;1654521;85;21048;-74
2021/12/21 12:05:51;;;;;;;24.63;12.13;;;;;;;-4.58;100.00;99369.17;1650349;85;21072;-82
2021/12/21 12:08:19;;;;;;;29.30;14.73;;;;;;;-4.60;100.00;99374.53;1656565;85;21020;-78
2021/12/21 12:10:59;;;;;;;23.73;13.33;;;;;;;-4.61;100.00;99377.25;1650544;85;21134;-84
2021/12/21 12:13:34;;;;;;;20.80;12.63;;;;;;;-4.61;100.00;99377.25;1655487;85;21069;-80
2021/12/21 12:16:14;;;;;;;29.57;17.10;;;;;;;-4.60;100.00;99375.85;1650417;85;20992;-77
2021/12/21 12:18:47;;;;;;;22.43;11.30;;;;;;;-4.56;100.00;99376.52;1658202;85;21031;-77
2021/12/21 12:21:24;;;;;;;22.52;13.28;;;;;;;-4.53;100.00;99379.43;1652042;85;21043;-78
2021/12/21 12:23:57;;;;;;;18.27;8.07;;;;;;;-4.58;100.00;99388.95;1585195;86;21035;-75
2021/12/21 12:26:36;;;;;;;15.07;6.97;;;;;;;-4.68;100.00;99391.75;1574585;90;21021;-78
2021/12/21 12:29:17;;;;;;;9.80;4.73;;;;;;;-4.74;100.00;99396.09;1573675;89;21119;-71
2021/12/21 12:32:06;;;;;;;6.97;4.00;;;;;;;-4.78;100.00;99404.62;1571565;91;21091;-70